TimeEST,TemperatureF,Dew PointF,Humidity,Sea Level PressureIn,VisibilityMPH,Wind Direction,Wind SpeedMPH,Gust SpeedMPH,PrecipitationIn,Events,Conditions,WindDirDegrees,DateUTC
12:51 AM,19.9,18.0,92,30.38,8.0,NNE,3.5,-,N/A,,Clear,30,2013-01-09 05:51:00
1:51 AM,19.9,18.0,92,30.38,8.0,Calm,Calm,-,N/A,,Clear,0,2013-01-09 06:51:00
2:51 AM,19.0,17.1,92,30.38,6.0,Calm,Calm,-,N/A,,Clear,0,2013-01-09 07:51:00
3:25 AM,17.6,14.0,86,30.35,1.8,Calm,Calm,-,N/A,,Clear,0,2013-01-09 08:25:00
3:32 AM,15.8,15.8,100,30.36,1.0,Calm,Calm,-,N/A,,Clear,0,2013-01-09 08:32:00
3:37 AM,17.6,15.8,93,30.36,2.0,Calm,Calm,-,N/A,,Clear,0,2013-01-09 08:37:00
3:47 AM,17.6,15.8,93,30.35,1.5,Calm,Calm,-,N/A,,Clear,0,2013-01-09 08:47:00
3:51 AM,16.0,14.0,92,30.37,2.5,Calm,Calm,-,N/A,,Clear,0,2013-01-09 08:51:00
4:13 AM,15.8,14.0,93,30.35,3.0,Calm,Calm,-,N/A,,Clear,0,2013-01-09 09:13:00
4:51 AM,14.0,10.9,88,30.38,6.0,Calm,Calm,-,N/A,,Clear,0,2013-01-09 09:51:00
5:51 AM,15.1,12.0,88,30.39,5.0,Calm,Calm,-,N/A,,Clear,0,2013-01-09 10:51:00
6:51 AM,10.9,10.0,96,30.40,5.0,Calm,Calm,-,N/A,,Clear,0,2013-01-09 11:51:00
7:51 AM,12.0,10.0,92,30.42,4.0,Calm,Calm,-,N/A,,Clear,0,2013-01-09 12:51:00
9:51 AM,19.9,19.0,96,30.38,4.0,Calm,Calm,-,N/A,,Clear,0,2013-01-09 14:51:00
10:51 AM,23.0,19.9,88,30.35,5.0,Calm,Calm,-,N/A,,Clear,0,2013-01-09 15:51:00
11:51 AM,26.6,21.2,80,30.24,5.0,Calm,Calm,-,N/A,,Haze,0,2013-01-09 16:51:00
12:51 PM,30.0,21.0,69,30.18,6.0,Calm,Calm,-,N/A,,Haze,0,2013-01-09 17:51:00
1:51 PM,30.0,21.9,72,30.17,3.0,Calm,Calm,-,N/A,,Haze,0,2013-01-09 18:51:00
2:51 PM,30.9,21.9,69,30.12,6.0,ESE,3.5,-,N/A,,Haze,110,2013-01-09 19:51:00
3:51 PM,34.0,24.1,67,30.05,8.0,SE,3.5,-,N/A,,Overcast,140,2013-01-09 20:51:00
4:51 PM,34.0,24.1,67,30.01,9.0,Calm,Calm,-,N/A,,Overcast,0,2013-01-09 21:51:00
5:51 PM,34.0,26.1,73,29.99,9.0,South,4.6,-,N/A,,Mostly Cloudy,180,2013-01-09 22:51:00
6:51 PM,26.6,21.2,80,29.96,7.0,WNW,3.5,-,N/A,,Partly Cloudy,300,2013-01-09 23:51:00
7:51 PM,25.0,23.0,92,29.97,6.0,SSE,3.5,-,N/A,,Clear,160,2013-01-10 00:51:00
8:51 PM,25.0,24.1,96,29.97,6.0,Calm,Calm,-,N/A,,Clear,0,2013-01-10 01:51:00
9:51 PM,26.1,24.1,92,29.99,6.0,Calm,Calm,-,N/A,,Overcast,0,2013-01-10 02:51:00
10:51 PM,39.9,27.0,60,29.99,10.0,West,8.1,-,N/A,,Overcast,260,2013-01-10 03:51:00
11:51 PM,41.0,26.1,55,30.00,10.0,West,9.2,-,N/A,,Mostly Cloudy,280,2013-01-10 04:51:00